sensor_id;sensor_type;location;lat;lon;timestamp;P1;durP1;ratioP1;P2;durP2;ratioP2
11394;SDS011;5753;54.402;10.220;2024-03-23T00:52:17;22.45;;;4.00;;
11394;SDS011;5753;54.402;10.220;2024-03-23T00:54:43;12.57;;;4.90;;
11394;SDS011;5753;54.402;10.220;2024-03-23T00:57:12;13.52;;;4.18;;
11394;SDS011;5753;54.402;10.220;2024-03-23T00:59:40;13.90;;;6.47;;
11394;SDS011;5753;54.402;10.220;2024-03-23T01:02:06;12.63;;;4.75;;
11394;SDS011;5753;54.402;10.220;2024-03-23T01:04:33;32.00;;;9.73;;
11394;SDS011;5753;54.402;10.220;2024-03-23T01:07:01;10.55;;;3.60;;
11394;SDS011;5753;54.402;10.220;2024-03-23T01:09:28;22.25;;;7.85;;
11394;SDS011;5753;54.402;10.220;2024-03-23T01:11:55;23.17;;;4.50;;
11394;SDS011;5753;54.402;10.220;2024-03-23T01:14:23;12.60;;;4.78;;
11394;SDS011;5753;54.402;10.220;2024-03-23T01:16:51;10.20;;;4.22;;
11394;SDS011;5753;54.402;10.220;2024-03-23T01:19:18;13.73;;;5.07;;
11394;SDS011;5753;54.402;10.220;2024-03-23T01:21:44;14.07;;;5.03;;
11394;SDS011;5753;54.402;10.220;2024-03-23T01:24:12;16.45;;;4.70;;
11394;SDS011;5753;54.402;10.220;2024-03-23T01:26:39;25.95;;;5.55;;
11394;SDS011;5753;54.402;10.220;2024-03-23T01:29:07;27.10;;;6.18;;
11394;SDS011;5753;54.402;10.220;2024-03-23T01:31:34;20.73;;;5.13;;
11394;SDS011;5753;54.402;10.220;2024-03-23T01:34:03;8.88;;;4.30;;
11394;SDS011;5753;54.402;10.220;2024-03-23T01:36:31;17.90;;;5.85;;
11394;SDS011;5753;54.402;10.220;2024-03-23T01:39:00;7.43;;;4.00;;
11394;SDS011;5753;54.402;10.220;2024-03-23T01:41:26;12.48;;;3.00;;
11394;SDS011;5753;54.402;10.220;2024-03-23T01:43:54;8.73;;;3.35;;
11394;SDS011;5753;54.402;10.220;2024-03-23T01:46:24;20.95;;;5.15;;
11394;SDS011;5753;54.402;10.220;2024-03-23T01:48:52;15.20;;;4.47;;
11394;SDS011;5753;54.402;10.220;2024-03-23T01:51:20;17.98;;;5.03;;
11394;SDS011;5753;54.402;10.220;2024-03-23T01:53:47;22.67;;;5.88;;
11394;SDS011;5753;54.402;10.220;2024-03-23T01:56:13;16.48;;;4.65;;
11394;SDS011;5753;54.402;10.220;2024-03-23T01:58:42;18.58;;;5.10;;
11394;SDS011;5753;54.402;10.220;2024-03-23T02:01:09;13.05;;;4.65;;
11394;SDS011;5753;54.402;10.220;2024-03-23T02:03:36;21.95;;;4.32;;
11394;SDS011;5753;54.402;10.220;2024-03-23T02:06:02;7.25;;;2.70;;
11394;SDS011;5753;54.402;10.220;2024-03-23T02:08:32;14.07;;;4.93;;
11394;SDS011;5753;54.402;10.220;2024-03-23T02:11:01;12.93;;;4.53;;
11394;SDS011;5753;54.402;10.220;2024-03-23T02:13:30;39.22;;;5.85;;
11394;SDS011;5753;54.402;10.220;2024-03-23T02:15:58;7.47;;;2.63;;
11394;SDS011;5753;54.402;10.220;2024-03-23T02:18:24;37.45;;;4.53;;
11394;SDS011;5753;54.402;10.220;2024-03-23T02:20:51;17.27;;;4.38;;
11394;SDS011;5753;54.402;10.220;2024-03-23T02:23:18;18.70;;;3.95;;
11394;SDS011;5753;54.402;10.220;2024-03-23T02:25:46;24.80;;;5.22;;
11394;SDS011;5753;54.402;10.220;2024-03-23T02:28:13;8.13;;;3.88;;
11394;SDS011;5753;54.402;10.220;2024-03-23T02:30:40;8.18;;;4.93;;
11394;SDS011;5753;54.402;10.220;2024-03-23T02:33:07;10.43;;;2.97;;
11394;SDS011;5753;54.402;10.220;2024-03-23T02:35:33;17.73;;;3.22;;
11394;SDS011;5753;54.402;10.220;2024-03-23T02:38:00;20.80;;;5.28;;
11394;SDS011;5753;54.402;10.220;2024-03-23T02:40:28;16.08;;;4.53;;
11394;SDS011;5753;54.402;10.220;2024-03-23T02:42:56;26.02;;;5.38;;
11394;SDS011;5753;54.402;10.220;2024-03-23T02:45:23;26.50;;;5.65;;
11394;SDS011;5753;54.402;10.220;2024-03-23T02:47:51;24.50;;;7.53;;
11394;SDS011;5753;54.402;10.220;2024-03-23T02:50:22;15.15;;;4.00;;
11394;SDS011;5753;54.402;10.220;2024-03-23T02:52:49;13.38;;;5.10;;
11394;SDS011;5753;54.402;10.220;2024-03-23T02:55:17;9.75;;;4.28;;
11394;SDS011;5753;54.402;10.220;2024-03-23T02:57:46;15.50;;;6.38;;
11394;SDS011;5753;54.402;10.220;2024-03-23T03:00:14;14.35;;;4.50;;
11394;SDS011;5753;54.402;10.220;2024-03-23T03:02:44;14.43;;;5.55;;
11394;SDS011;5753;54.402;10.220;2024-03-23T03:05:10;28.38;;;6.43;;
11394;SDS011;5753;54.402;10.220;2024-03-23T03:07:40;15.60;;;4.68;;
11394;SDS011;5753;54.402;10.220;2024-03-23T03:10:08;11.43;;;3.35;;
11394;SDS011;5753;54.402;10.220;2024-03-23T03:12:39;12.90;;;4.63;;
11394;SDS011;5753;54.402;10.220;2024-03-23T03:15:05;13.40;;;4.63;;
11394;SDS011;5753;54.402;10.220;2024-03-23T03:17:36;17.98;;;6.10;;
11394;SDS011;5753;54.402;10.220;2024-03-23T03:20:05;17.48;;;5.38;;
11394;SDS011;5753;54.402;10.220;2024-03-23T03:22:32;9.15;;;4.05;;
11394;SDS011;5753;54.402;10.220;2024-03-23T03:24:59;11.57;;;3.70;;
11394;SDS011;5753;54.402;10.220;2024-03-23T03:27:30;18.92;;;3.55;;
11394;SDS011;5753;54.402;10.220;2024-03-23T03:29:58;19.83;;;5.03;;
11394;SDS011;5753;54.402;10.220;2024-03-23T03:32:26;9.52;;;3.47;;
11394;SDS011;5753;54.402;10.220;2024-03-23T03:34:55;19.48;;;4.05;;
11394;SDS011;5753;54.402;10.220;2024-03-23T03:37:21;9.23;;;4.10;;
11394;SDS011;5753;54.402;10.220;2024-03-23T03:39:48;16.10;;;3.85;;
11394;SDS011;5753;54.402;10.220;2024-03-23T03:42:15;8.00;;;3.80;;
11394;SDS011;5753;54.402;10.220;2024-03-23T03:44:43;12.05;;;3.55;;
11394;SDS011;5753;54.402;10.220;2024-03-23T03:47:10;34.30;;;4.78;;
11394;SDS011;5753;54.402;10.220;2024-03-23T03:49:38;14.15;;;4.88;;
11394;SDS011;5753;54.402;10.220;2024-03-23T03:52:05;4.72;;;2.17;;
11394;SDS011;5753;54.402;10.220;2024-03-23T03:54:32;12.43;;;4.65;;
11394;SDS011;5753;54.402;10.220;2024-03-23T03:57:02;8.52;;;4.65;;
11394;SDS011;5753;54.402;10.220;2024-03-23T03:59:29;21.73;;;5.85;;
11394;SDS011;5753;54.402;10.220;2024-03-23T04:01:55;10.10;;;2.78;;
11394;SDS011;5753;54.402;10.220;2024-03-23T04:04:21;33.05;;;5.75;;
11394;SDS011;5753;54.402;10.220;2024-03-23T04:06:48;14.07;;;3.80;;
11394;SDS011;5753;54.402;10.220;2024-03-23T04:09:17;17.63;;;5.55;;
11394;SDS011;5753;54.402;10.220;2024-03-23T04:11:43;26.15;;;3.35;;
11394;SDS011;5753;54.402;10.220;2024-03-23T04:14:11;36.40;;;6.80;;
11394;SDS011;5753;54.402;10.220;2024-03-23T04:16:40;20.02;;;5.90;;
11394;SDS011;5753;54.402;10.220;2024-03-23T04:19:10;17.15;;;3.88;;
11394;SDS011;5753;54.402;10.220;2024-03-23T04:21:42;15.07;;;4.40;;
11394;SDS011;5753;54.402;10.220;2024-03-23T04:24:09;13.60;;;6.40;;
11394;SDS011;5753;54.402;10.220;2024-03-23T04:26:42;30.80;;;5.60;;
11394;SDS011;5753;54.402;10.220;2024-03-23T04:29:09;17.27;;;4.43;;
11394;SDS011;5753;54.402;10.220;2024-03-23T04:31:37;42.45;;;6.88;;
11394;SDS011;5753;54.402;10.220;2024-03-23T04:34:05;17.35;;;5.03;;
11394;SDS011;5753;54.402;10.220;2024-03-23T04:36:31;22.38;;;5.85;;
11394;SDS011;5753;54.402;10.220;2024-03-23T04:38:59;13.48;;;6.63;;
11394;SDS011;5753;54.402;10.220;2024-03-23T04:41:27;10.15;;;4.10;;
11394;SDS011;5753;54.402;10.220;2024-03-23T04:43:55;14.60;;;3.75;;
11394;SDS011;5753;54.402;10.220;2024-03-23T04:46:21;16.10;;;3.92;;
11394;SDS011;5753;54.402;10.220;2024-03-23T04:48:50;15.23;;;3.97;;
11394;SDS011;5753;54.402;10.220;2024-03-23T04:51:22;5.95;;;3.50;;
11394;SDS011;5753;54.402;10.220;2024-03-23T04:53:50;10.88;;;4.07;;
11394;SDS011;5753;54.402;10.220;2024-03-23T04:56:19;11.57;;;3.95;;
11394;SDS011;5753;54.402;10.220;2024-03-23T04:58:46;10.43;;;4.53;;
11394;SDS011;5753;54.402;10.220;2024-03-23T05:01:13;10.45;;;4.10;;
11394;SDS011;5753;54.402;10.220;2024-03-23T05:03:40;13.55;;;3.88;;
11394;SDS011;5753;54.402;10.220;2024-03-23T05:06:07;13.55;;;3.55;;
11394;SDS011;5753;54.402;10.220;2024-03-23T05:08:33;17.83;;;5.30;;
11394;SDS011;5753;54.402;10.220;2024-03-23T05:11:01;10.05;;;3.75;;
11394;SDS011;5753;54.402;10.220;2024-03-23T05:13:28;11.00;;;4.38;;
11394;SDS011;5753;54.402;10.220;2024-03-23T05:15:59;22.38;;;6.32;;
11394;SDS011;5753;54.402;10.220;2024-03-23T05:18:29;13.85;;;5.15;;
11394;SDS011;5753;54.402;10.220;2024-03-23T05:21:00;11.02;;;3.40;;
11394;SDS011;5753;54.402;10.220;2024-03-23T05:23:28;12.63;;;4.60;;
11394;SDS011;5753;54.402;10.220;2024-03-23T05:25:56;22.58;;;6.57;;
11394;SDS011;5753;54.402;10.220;2024-03-23T05:28:23;32.15;;;7.28;;
11394;SDS011;5753;54.402;10.220;2024-03-23T05:30:54;29.02;;;7.03;;
11394;SDS011;5753;54.402;10.220;2024-03-23T05:33:24;13.82;;;5.00;;
11394;SDS011;5753;54.402;10.220;2024-03-23T05:36:02;13.57;;;6.00;;
11394;SDS011;5753;54.402;10.220;2024-03-23T05:38:29;17.10;;;5.20;;
11394;SDS011;5753;54.402;10.220;2024-03-23T05:41:00;28.95;;;5.38;;
11394;SDS011;5753;54.402;10.220;2024-03-23T05:43:27;27.27;;;7.72;;
11394;SDS011;5753;54.402;10.220;2024-03-23T05:45:57;17.98;;;6.63;;
11394;SDS011;5753;54.402;10.220;2024-03-23T05:48:26;15.35;;;5.95;;
11394;SDS011;5753;54.402;10.220;2024-03-23T05:50:58;11.30;;;3.80;;
11394;SDS011;5753;54.402;10.220;2024-03-23T05:53:26;18.98;;;4.85;;
11394;SDS011;5753;54.402;10.220;2024-03-23T05:56:01;11.60;;;6.60;;
11394;SDS011;5753;54.402;10.220;2024-03-23T05:58:36;13.13;;;6.97;;
11394;SDS011;5753;54.402;10.220;2024-03-23T06:01:03;33.42;;;7.05;;
11394;SDS011;5753;54.402;10.220;2024-03-23T06:03:30;24.98;;;9.98;;
11394;SDS011;5753;54.402;10.220;2024-03-23T06:05:57;30.08;;;7.70;;
11394;SDS011;5753;54.402;10.220;2024-03-23T06:08:24;29.65;;;9.60;;
11394;SDS011;5753;54.402;10.220;2024-03-23T06:10:52;35.65;;;8.63;;
11394;SDS011;5753;54.402;10.220;2024-03-23T06:13:20;18.75;;;9.30;;
11394;SDS011;5753;54.402;10.220;2024-03-23T06:15:54;28.85;;;12.10;;
11394;SDS011;5753;54.402;10.220;2024-03-23T06:18:21;29.38;;;8.45;;
11394;SDS011;5753;54.402;10.220;2024-03-23T06:20:50;25.50;;;6.20;;
11394;SDS011;5753;54.402;10.220;2024-03-23T06:23:17;20.38;;;8.02;;
11394;SDS011;5753;54.402;10.220;2024-03-23T06:25:45;30.02;;;8.13;;
11394;SDS011;5753;54.402;10.220;2024-03-23T06:28:13;33.28;;;12.25;;
11394;SDS011;5753;54.402;10.220;2024-03-23T06:30:39;23.67;;;8.02;;
11394;SDS011;5753;54.402;10.220;2024-03-23T06:33:07;31.92;;;8.98;;
11394;SDS011;5753;54.402;10.220;2024-03-23T06:35:36;23.08;;;9.10;;
11394;SDS011;5753;54.402;10.220;2024-03-23T06:38:03;21.77;;;9.68;;
11394;SDS011;5753;54.402;10.220;2024-03-23T06:40:31;38.80;;;12.38;;
11394;SDS011;5753;54.402;10.220;2024-03-23T06:42:57;16.58;;;8.80;;
11394;SDS011;5753;54.402;10.220;2024-03-23T06:45:25;21.38;;;7.85;;
11394;SDS011;5753;54.402;10.220;2024-03-23T06:47:52;26.90;;;7.65;;
11394;SDS011;5753;54.402;10.220;2024-03-23T06:50:24;14.65;;;8.57;;
11394;SDS011;5753;54.402;10.220;2024-03-23T06:52:51;17.58;;;8.93;;
11394;SDS011;5753;54.402;10.220;2024-03-23T06:55:18;19.60;;;6.88;;
11394;SDS011;5753;54.402;10.220;2024-03-23T06:57:46;16.70;;;6.63;;
11394;SDS011;5753;54.402;10.220;2024-03-23T07:00:13;22.23;;;8.05;;
11394;SDS011;5753;54.402;10.220;2024-03-23T07:02:43;22.75;;;10.65;;
11394;SDS011;5753;54.402;10.220;2024-03-23T07:05:10;13.40;;;11.00;;
11394;SDS011;5753;54.402;10.220;2024-03-23T07:07:38;20.05;;;7.25;;
11394;SDS011;5753;54.402;10.220;2024-03-23T07:10:05;16.15;;;7.35;;
11394;SDS011;5753;54.402;10.220;2024-03-23T07:12:33;21.25;;;7.40;;
11394;SDS011;5753;54.402;10.220;2024-03-23T07:15:01;19.95;;;7.65;;
11394;SDS011;5753;54.402;10.220;2024-03-23T07:17:29;27.00;;;6.75;;
11394;SDS011;5753;54.402;10.220;2024-03-23T07:19:56;23.23;;;10.18;;
11394;SDS011;5753;54.402;10.220;2024-03-23T07:22:24;18.75;;;8.18;;
11394;SDS011;5753;54.402;10.220;2024-03-23T07:24:51;8.63;;;5.93;;
11394;SDS011;5753;54.402;10.220;2024-03-23T07:27:19;21.50;;;9.55;;
11394;SDS011;5753;54.402;10.220;2024-03-23T07:29:45;24.25;;;10.65;;
11394;SDS011;5753;54.402;10.220;2024-03-23T07:32:14;21.60;;;8.90;;
11394;SDS011;5753;54.402;10.220;2024-03-23T07:34:41;33.40;;;10.80;;
11394;SDS011;5753;54.402;10.220;2024-03-23T07:37:11;26.00;;;10.40;;
11394;SDS011;5753;54.402;10.220;2024-03-23T07:39:41;21.67;;;10.68;;
11394;SDS011;5753;54.402;10.220;2024-03-23T07:42:10;25.88;;;10.70;;
11394;SDS011;5753;54.402;10.220;2024-03-23T07:44:39;30.90;;;10.32;;
11394;SDS011;5753;54.402;10.220;2024-03-23T07:47:07;24.13;;;8.13;;
11394;SDS011;5753;54.402;10.220;2024-03-23T07:49:34;31.33;;;8.75;;
11394;SDS011;5753;54.402;10.220;2024-03-23T07:52:04;16.55;;;7.93;;
11394;SDS011;5753;54.402;10.220;2024-03-23T07:54:30;22.25;;;7.72;;
11394;SDS011;5753;54.402;10.220;2024-03-23T07:56:58;18.90;;;8.80;;
11394;SDS011;5753;54.402;10.220;2024-03-23T07:59:24;28.90;;;8.80;;
11394;SDS011;5753;54.402;10.220;2024-03-23T08:01:52;40.75;;;8.20;;
11394;SDS011;5753;54.402;10.220;2024-03-23T08:04:21;18.83;;;7.22;;
11394;SDS011;5753;54.402;10.220;2024-03-23T08:06:49;15.77;;;7.72;;
11394;SDS011;5753;54.402;10.220;2024-03-23T08:09:15;20.73;;;7.80;;
11394;SDS011;5753;54.402;10.220;2024-03-23T08:11:45;24.52;;;8.52;;
11394;SDS011;5753;54.402;10.220;2024-03-23T08:14:11;21.45;;;6.93;;
11394;SDS011;5753;54.402;10.220;2024-03-23T08:16:40;22.55;;;8.57;;
11394;SDS011;5753;54.402;10.220;2024-03-23T08:19:08;23.90;;;7.93;;
11394;SDS011;5753;54.402;10.220;2024-03-23T08:21:39;23.02;;;8.05;;
11394;SDS011;5753;54.402;10.220;2024-03-23T08:24:07;26.80;;;7.82;;
11394;SDS011;5753;54.402;10.220;2024-03-23T08:26:34;28.08;;;7.40;;
11394;SDS011;5753;54.402;10.220;2024-03-23T08:29:02;17.70;;;7.82;;
11394;SDS011;5753;54.402;10.220;2024-03-23T08:31:29;13.55;;;8.57;;
11394;SDS011;5753;54.402;10.220;2024-03-23T08:33:57;23.15;;;5.88;;
11394;SDS011;5753;54.402;10.220;2024-03-23T08:36:23;7.80;;;5.95;;
11394;SDS011;5753;54.402;10.220;2024-03-23T08:38:50;14.07;;;6.35;;
11394;SDS011;5753;54.402;10.220;2024-03-23T08:41:20;18.00;;;6.47;;
11394;SDS011;5753;54.402;10.220;2024-03-23T08:43:46;17.55;;;5.32;;
11394;SDS011;5753;54.402;10.220;2024-03-23T08:46:15;2.70;;;1.95;;
11394;SDS011;5753;54.402;10.220;2024-03-23T08:48:42;9.52;;;1.65;;
11394;SDS011;5753;54.402;10.220;2024-03-23T08:51:11;2.70;;;1.15;;
11394;SDS011;5753;54.402;10.220;2024-03-23T08:53:39;0.70;;;0.47;;
11394;SDS011;5753;54.402;10.220;2024-03-23T08:56:08;0.70;;;0.50;;
11394;SDS011;5753;54.402;10.220;2024-03-23T08:58:36;2.00;;;0.65;;
11394;SDS011;5753;54.402;10.220;2024-03-23T09:01:06;2.92;;;0.63;;
11394;SDS011;5753;54.402;10.220;2024-03-23T09:03:36;1.25;;;0.60;;
11394;SDS011;5753;54.402;10.220;2024-03-23T09:06:12;2.20;;;1.05;;
11394;SDS011;5753;54.402;10.220;2024-03-23T09:08:50;0.77;;;0.63;;
11394;SDS011;5753;54.402;10.220;2024-03-23T09:11:16;5.32;;;1.55;;
11394;SDS011;5753;54.402;10.220;2024-03-23T09:13:43;4.88;;;1.77;;
11394;SDS011;5753;54.402;10.220;2024-03-23T09:16:09;5.35;;;1.42;;
11394;SDS011;5753;54.402;10.220;2024-03-23T09:18:37;5.35;;;2.45;;
11394;SDS011;5753;54.402;10.220;2024-03-23T09:21:04;9.27;;;1.98;;
11394;SDS011;5753;54.402;10.220;2024-03-23T09:23:45;7.07;;;1.23;;
11394;SDS011;5753;54.402;10.220;2024-03-23T09:26:11;4.38;;;1.45;;
11394;SDS011;5753;54.402;10.220;2024-03-23T09:28:41;9.25;;;2.83;;
11394;SDS011;5753;54.402;10.220;2024-03-23T09:31:08;1.17;;;1.08;;
11394;SDS011;5753;54.402;10.220;2024-03-23T09:33:40;1.98;;;1.45;;
11394;SDS011;5753;54.402;10.220;2024-03-23T09:36:08;5.60;;;1.92;;
11394;SDS011;5753;54.402;10.220;2024-03-23T09:38:34;1.88;;;1.02;;
11394;SDS011;5753;54.402;10.220;2024-03-23T09:41:08;10.30;;;2.10;;
11394;SDS011;5753;54.402;10.220;2024-03-23T09:43:38;2.67;;;1.55;;
11394;SDS011;5753;54.402;10.220;2024-03-23T09:46:04;10.30;;;2.75;;
11394;SDS011;5753;54.402;10.220;2024-03-23T09:48:31;3.78;;;1.17;;
11394;SDS011;5753;54.402;10.220;2024-03-23T09:50:58;3.92;;;3.13;;
11394;SDS011;5753;54.402;10.220;2024-03-23T09:53:25;11.48;;;2.03;;
11394;SDS011;5753;54.402;10.220;2024-03-23T09:55:53;10.20;;;3.75;;
11394;SDS011;5753;54.402;10.220;2024-03-23T09:58:23;7.55;;;1.83;;
11394;SDS011;5753;54.402;10.220;2024-03-23T10:00:50;3.17;;;2.85;;
11394;SDS011;5753;54.402;10.220;2024-03-23T10:03:17;5.50;;;4.15;;
11394;SDS011;5753;54.402;10.220;2024-03-23T10:05:43;3.83;;;1.42;;
11394;SDS011;5753;54.402;10.220;2024-03-23T10:11:15;2.42;;;1.98;;
11394;SDS011;5753;54.402;10.220;2024-03-23T10:13:43;2.38;;;1.70;;
11394;SDS011;5753;54.402;10.220;2024-03-23T10:16:11;5.28;;;3.20;;
11394;SDS011;5753;54.402;10.220;2024-03-23T10:18:46;5.90;;;2.22;;
11394;SDS011;5753;54.402;10.220;2024-03-23T10:21:14;4.55;;;3.40;;
11394;SDS011;5753;54.402;10.220;2024-03-23T10:23:43;12.45;;;3.47;;
11394;SDS011;5753;54.402;10.220;2024-03-23T10:28:57;6.30;;;4.15;;
11394;SDS011;5753;54.402;10.220;2024-03-23T10:31:36;3.08;;;1.80;;
11394;SDS011;5753;54.402;10.220;2024-03-23T10:34:07;5.72;;;1.92;;
11394;SDS011;5753;54.402;10.220;2024-03-23T10:36:35;8.57;;;2.92;;
11394;SDS011;5753;54.402;10.220;2024-03-23T10:39:07;11.27;;;3.13;;
11394;SDS011;5753;54.402;10.220;2024-03-23T10:41:37;3.80;;;2.40;;
11394;SDS011;5753;54.402;10.220;2024-03-23T10:44:16;8.20;;;3.40;;
11394;SDS011;5753;54.402;10.220;2024-03-23T10:46:46;7.07;;;3.35;;
11394;SDS011;5753;54.402;10.220;2024-03-23T10:49:12;5.60;;;1.70;;
11394;SDS011;5753;54.402;10.220;2024-03-23T10:51:39;7.65;;;2.50;;
11394;SDS011;5753;54.402;10.220;2024-03-23T10:54:08;7.93;;;1.88;;
11394;SDS011;5753;54.402;10.220;2024-03-23T10:56:38;4.00;;;3.33;;
11394;SDS011;5753;54.402;10.220;2024-03-23T10:59:06;12.00;;;2.75;;
11394;SDS011;5753;54.402;10.220;2024-03-23T11:01:43;9.93;;;3.13;;
11394;SDS011;5753;54.402;10.220;2024-03-23T11:04:35;8.40;;;2.67;;
11394;SDS011;5753;54.402;10.220;2024-03-23T11:07:50;6.70;;;3.05;;
11394;SDS011;5753;54.402;10.220;2024-03-23T11:10:24;4.18;;;1.58;;
11394;SDS011;5753;54.402;10.220;2024-03-23T11:12:56;6.60;;;1.38;;
11394;SDS011;5753;54.402;10.220;2024-03-23T11:15:23;6.75;;;2.50;;
11394;SDS011;5753;54.402;10.220;2024-03-23T11:18:05;4.03;;;2.05;;
11394;SDS011;5753;54.402;10.220;2024-03-23T11:20:35;10.95;;;2.28;;
11394;SDS011;5753;54.402;10.220;2024-03-23T11:23:04;10.50;;;2.95;;
11394;SDS011;5753;54.402;10.220;2024-03-23T11:25:32;3.97;;;1.98;;
11394;SDS011;5753;54.402;10.220;2024-03-23T11:28:11;15.43;;;3.10;;
11394;SDS011;5753;54.402;10.220;2024-03-23T11:30:39;2.65;;;1.23;;
11394;SDS011;5753;54.402;10.220;2024-03-23T11:33:06;9.35;;;2.40;;
11394;SDS011;5753;54.402;10.220;2024-03-23T11:35:33;4.65;;;2.92;;
11394;SDS011;5753;54.402;10.220;2024-03-23T11:38:09;5.45;;;1.58;;
11394;SDS011;5753;54.402;10.220;2024-03-23T11:40:48;8.48;;;1.65;;
11394;SDS011;5753;54.402;10.220;2024-03-23T11:43:16;2.20;;;1.33;;
11394;SDS011;5753;54.402;10.220;2024-03-23T11:45:48;0.77;;;0.68;;
11394;SDS011;5753;54.402;10.220;2024-03-23T11:48:18;1.15;;;0.98;;
11394;SDS011;5753;54.402;10.220;2024-03-23T11:50:47;6.97;;;1.98;;
11394;SDS011;5753;54.402;10.220;2024-03-23T11:53:18;6.15;;;2.17;;
11394;SDS011;5753;54.402;10.220;2024-03-23T11:55:53;6.75;;;2.42;;
11394;SDS011;5753;54.402;10.220;2024-03-23T11:58:25;7.45;;;2.30;;
11394;SDS011;5753;54.402;10.220;2024-03-23T12:00:56;5.60;;;1.50;;
11394;SDS011;5753;54.402;10.220;2024-03-23T12:03:26;2.47;;;1.08;;
11394;SDS011;5753;54.402;10.220;2024-03-23T12:05:58;1.65;;;1.10;;
11394;SDS011;5753;54.402;10.220;2024-03-23T12:11:15;1.23;;;0.55;;
11394;SDS011;5753;54.402;10.220;2024-03-23T12:13:44;4.57;;;1.15;;
11394;SDS011;5753;54.402;10.220;2024-03-23T12:16:12;6.30;;;1.00;;
11394;SDS011;5753;54.402;10.220;2024-03-23T12:18:44;3.75;;;2.35;;
11394;SDS011;5753;54.402;10.220;2024-03-23T12:21:14;4.40;;;1.38;;
11394;SDS011;5753;54.402;10.220;2024-03-23T12:23:46;5.32;;;1.77;;
11394;SDS011;5753;54.402;10.220;2024-03-23T12:26:25;1.48;;;0.90;;
11394;SDS011;5753;54.402;10.220;2024-03-23T12:28:52;7.63;;;1.35;;
11394;SDS011;5753;54.402;10.220;2024-03-23T12:31:20;5.03;;;1.48;;
11394;SDS011;5753;54.402;10.220;2024-03-23T12:33:47;6.90;;;1.73;;
11394;SDS011;5753;54.402;10.220;2024-03-23T12:36:15;3.75;;;1.23;;
11394;SDS011;5753;54.402;10.220;2024-03-23T12:38:41;8.10;;;1.90;;
11394;SDS011;5753;54.402;10.220;2024-03-23T12:41:15;16.70;;;3.42;;
11394;SDS011;5753;54.402;10.220;2024-03-23T12:43:41;8.98;;;2.38;;
11394;SDS011;5753;54.402;10.220;2024-03-23T12:46:07;1.45;;;1.13;;
11394;SDS011;5753;54.402;10.220;2024-03-23T12:48:39;4.88;;;3.08;;
11394;SDS011;5753;54.402;10.220;2024-03-23T12:51:09;3.47;;;1.42;;
11394;SDS011;5753;54.402;10.220;2024-03-23T12:53:39;2.35;;;2.08;;
11394;SDS011;5753;54.402;10.220;2024-03-23T12:56:06;3.90;;;2.00;;
11394;SDS011;5753;54.402;10.220;2024-03-23T12:58:36;2.92;;;1.10;;
11394;SDS011;5753;54.402;10.220;2024-03-23T13:01:03;5.45;;;2.25;;
11394;SDS011;5753;54.402;10.220;2024-03-23T13:03:31;2.78;;;0.95;;
11394;SDS011;5753;54.402;10.220;2024-03-23T13:05:59;2.45;;;1.75;;
11394;SDS011;5753;54.402;10.220;2024-03-23T13:08:26;11.02;;;2.42;;
11394;SDS011;5753;54.402;10.220;2024-03-23T13:10:52;2.55;;;1.23;;
11394;SDS011;5753;54.402;10.220;2024-03-23T13:13:20;2.45;;;1.60;;
11394;SDS011;5753;54.402;10.220;2024-03-23T13:15:49;4.28;;;1.67;;
11394;SDS011;5753;54.402;10.220;2024-03-23T13:18:16;2.80;;;1.55;;
11394;SDS011;5753;54.402;10.220;2024-03-23T13:20:44;7.97;;;2.55;;
11394;SDS011;5753;54.402;10.220;2024-03-23T13:23:10;6.55;;;1.10;;
11394;SDS011;5753;54.402;10.220;2024-03-23T13:25:36;3.38;;;2.10;;
11394;SDS011;5753;54.402;10.220;2024-03-23T13:28:03;11.88;;;2.75;;
11394;SDS011;5753;54.402;10.220;2024-03-23T13:30:32;4.07;;;1.88;;
11394;SDS011;5753;54.402;10.220;2024-03-23T13:32:58;8.48;;;1.55;;
11394;SDS011;5753;54.402;10.220;2024-03-23T13:35:26;5.18;;;1.83;;
11394;SDS011;5753;54.402;10.220;2024-03-23T13:37:53;1.75;;;1.35;;
11394;SDS011;5753;54.402;10.220;2024-03-23T13:40:20;4.28;;;2.42;;
11394;SDS011;5753;54.402;10.220;2024-03-23T13:42:47;7.60;;;1.60;;
11394;SDS011;5753;54.402;10.220;2024-03-23T13:45:16;3.40;;;1.40;;
11394;SDS011;5753;54.402;10.220;2024-03-23T13:47:43;1.45;;;0.70;;
11394;SDS011;5753;54.402;10.220;2024-03-23T13:50:11;9.85;;;0.85;;
11394;SDS011;5753;54.402;10.220;2024-03-23T13:52:44;1.05;;;0.90;;
11394;SDS011;5753;54.402;10.220;2024-03-23T13:55:12;1.50;;;1.33;;
11394;SDS011;5753;54.402;10.220;2024-03-23T13:57:40;2.80;;;1.08;;
11394;SDS011;5753;54.402;10.220;2024-03-23T14:00:07;1.98;;;1.60;;
11394;SDS011;5753;54.402;10.220;2024-03-23T14:02:34;7.15;;;1.25;;
11394;SDS011;5753;54.402;10.220;2024-03-23T14:05:01;4.45;;;1.95;;
11394;SDS011;5753;54.402;10.220;2024-03-23T14:07:29;9.02;;;4.32;;
11394;SDS011;5753;54.402;10.220;2024-03-23T14:09:55;15.18;;;5.68;;
11394;SDS011;5753;54.402;10.220;2024-03-23T14:12:27;17.50;;;6.97;;
11394;SDS011;5753;54.402;10.220;2024-03-23T14:14:53;7.47;;;2.42;;
11394;SDS011;5753;54.402;10.220;2024-03-23T14:17:22;7.40;;;1.48;;
11394;SDS011;5753;54.402;10.220;2024-03-23T14:19:50;4.30;;;1.52;;
11394;SDS011;5753;54.402;10.220;2024-03-23T14:22:19;2.75;;;1.45;;
11394;SDS011;5753;54.402;10.220;2024-03-23T14:24:49;3.40;;;1.52;;
11394;SDS011;5753;54.402;10.220;2024-03-23T14:27:19;3.85;;;1.85;;
11394;SDS011;5753;54.402;10.220;2024-03-23T14:29:49;3.90;;;1.50;;
11394;SDS011;5753;54.402;10.220;2024-03-23T14:32:25;2.75;;;1.23;;
11394;SDS011;5753;54.402;10.220;2024-03-23T14:34:54;1.45;;;1.35;;
11394;SDS011;5753;54.402;10.220;2024-03-23T14:37:24;3.38;;;1.83;;
11394;SDS011;5753;54.402;10.220;2024-03-23T14:40:12;4.25;;;1.75;;
11394;SDS011;5753;54.402;10.220;2024-03-23T14:42:39;5.05;;;2.58;;
11394;SDS011;5753;54.402;10.220;2024-03-23T14:45:06;2.55;;;1.42;;
11394;SDS011;5753;54.402;10.220;2024-03-23T14:47:34;8.13;;;2.85;;
11394;SDS011;5753;54.402;10.220;2024-03-23T14:50:03;4.20;;;3.45;;
11394;SDS011;5753;54.402;10.220;2024-03-23T14:52:33;3.05;;;2.05;;
11394;SDS011;5753;54.402;10.220;2024-03-23T14:55:02;16.85;;;2.30;;
11394;SDS011;5753;54.402;10.220;2024-03-23T14:57:28;20.77;;;3.42;;
11394;SDS011;5753;54.402;10.220;2024-03-23T14:59:56;7.30;;;2.25;;
11394;SDS011;5753;54.402;10.220;2024-03-23T15:02:26;10.55;;;4.10;;
11394;SDS011;5753;54.402;10.220;2024-03-23T15:04:57;5.57;;;3.72;;
11394;SDS011;5753;54.402;10.220;2024-03-23T15:07:25;8.57;;;3.00;;
11394;SDS011;5753;54.402;10.220;2024-03-23T15:09:53;3.13;;;1.95;;
11394;SDS011;5753;54.402;10.220;2024-03-23T15:12:19;7.00;;;2.13;;
11394;SDS011;5753;54.402;10.220;2024-03-23T15:14:48;23.13;;;2.40;;
11394;SDS011;5753;54.402;10.220;2024-03-23T15:17:14;4.82;;;2.08;;
11394;SDS011;5753;54.402;10.220;2024-03-23T15:19:41;2.45;;;1.40;;
11394;SDS011;5753;54.402;10.220;2024-03-23T15:22:07;8.60;;;2.25;;
11394;SDS011;5753;54.402;10.220;2024-03-23T15:24:36;6.43;;;1.83;;
11394;SDS011;5753;54.402;10.220;2024-03-23T15:27:03;3.33;;;1.60;;
11394;SDS011;5753;54.402;10.220;2024-03-23T15:29:29;3.88;;;1.40;;
11394;SDS011;5753;54.402;10.220;2024-03-23T15:31:57;6.63;;;1.60;;
11394;SDS011;5753;54.402;10.220;2024-03-23T15:34:23;14.23;;;2.25;;
11394;SDS011;5753;54.402;10.220;2024-03-23T15:36:51;8.43;;;1.60;;
11394;SDS011;5753;54.402;10.220;2024-03-23T15:39:18;5.32;;;2.92;;
11394;SDS011;5753;54.402;10.220;2024-03-23T15:41:47;3.33;;;0.93;;
11394;SDS011;5753;54.402;10.220;2024-03-23T15:44:14;2.17;;;0.98;;
11394;SDS011;5753;54.402;10.220;2024-03-23T15:46:40;2.15;;;1.35;;
11394;SDS011;5753;54.402;10.220;2024-03-23T15:49:07;5.60;;;2.88;;